PWSweather.com
Personal Weather Stations
Station Observations
SK506605TK
Roznove Mitice, Trencianske MiticeSK 91322

Roznove MiticeTrencianske MiticeSK 91322

Lat: 48.8067, Lon: 18.1133

Elevation: 984

Station Type: Oregon Scientific WMRS200

High Low Average
Temperature 59.9°F15.5°C 41.9°F5.5°C 46.2°F7.9°C
Dew Point 44.1°F6.7°C 31.1°F-0.5°C 38.3°F3.5°C
Winds 6.2 mph 10.0 kmh Calm Calm 1.0 mph SSW1.6 kmh SSW
Wind Gusts 11.0 mph17.7 kmh -- 3.0 mph4.8 kmh
Humidity 98% 42% 76%
Pressure 28.64 in969.9 mb 28.47 in964.1 mb -
Precipitation 0.00 in0.0 mm - -
Hour Temp Dew Point Humidity Winds Wind Gusts Pressure Precip Precip Rate Daily Precip Total
12:03 AM 47.9°F8.8°C 32.1°F0.1°C 55% 0.6 mph SW1.0 kmh SW 2.5 mph4.0 kmh 28.53 in966.1 mb 0.00 in0.0 mm 0.00 in/hr0.0 mm/hr 0.00 in0.0 mm
12:08 AM 47.8°F8.8°C 32.9°F0.5°C 56% 0.9 mph WSW1.4 kmh WSW 2.5 mph4.0 kmh 28.53 in966.1 mb 0.00 in0.0 mm 0.00 in/hr0.0 mm/hr 0.00 in0.0 mm
12:13 AM 47.6°F8.7°C 32.3°F0.2°C 55% Calm Calm 2.5 mph4.0 kmh 28.53 in966.1 mb 0.00 in0.0 mm 0.00 in/hr0.0 mm/hr 0.00 in0.0 mm
12:18 AM 47.5°F8.6°C 32.1°F0.1°C 55% Calm Calm -- 28.53 in966.1 mb 0.00 in0.0 mm 0.00 in/hr0.0 mm/hr 0.00 in0.0 mm
12:23 AM 47.4°F8.6°C 32.0°F0.0°C 55% Calm Calm -- 28.53 in966.1 mb 0.00 in0.0 mm 0.00 in/hr0.0 mm/hr 0.00 in0.0 mm
12:28 AM 47.4°F8.6°C 32.2°F0.1°C 56% 0.6 mph SW1.0 kmh SW 1.3 mph2.1 kmh 28.53 in966.1 mb 0.00 in0.0 mm 0.00 in/hr0.0 mm/hr 0.00 in0.0 mm
12:33 AM 47.3°F8.5°C 32.4°F0.2°C 56% Calm Calm 1.3 mph2.1 kmh 28.53 in966.1 mb 0.00 in0.0 mm 0.00 in/hr0.0 mm/hr 0.00 in0.0 mm
12:38 AM 47.2°F8.4°C 32.3°F0.2°C 56% Calm Calm 1.3 mph2.1 kmh 28.53 in966.1 mb 0.00 in0.0 mm 0.00 in/hr0.0 mm/hr 0.00 in0.0 mm
12:43 AM 47.1°F8.4°C 32.2°F0.1°C 56% Calm Calm -- 28.53 in966.1 mb 0.00 in0.0 mm 0.00 in/hr0.0 mm/hr 0.00 in0.0 mm
12:48 AM 47.1°F8.4°C 32.2°F0.1°C 56% Calm Calm -- 28.53 in966.1 mb 0.00 in0.0 mm 0.00 in/hr0.0 mm/hr 0.00 in0.0 mm
12:53 AM 47.3°F8.5°C 32.4°F0.2°C 56% Calm Calm -- 28.53 in966.1 mb 0.00 in0.0 mm 0.00 in/hr0.0 mm/hr 0.00 in0.0 mm
12:58 AM 47.3°F8.5°C 32.6°F0.3°C 57% 0.2 mph SSW0.3 kmh SSW 1.3 mph2.1 kmh 28.53 in966.1 mb 0.00 in0.0 mm 0.00 in/hr0.0 mm/hr 0.00 in0.0 mm
01:03 AM 47.4°F8.6°C 32.9°F0.5°C 57% Calm Calm 1.3 mph2.1 kmh 28.53 in966.1 mb 0.00 in0.0 mm 0.00 in/hr0.0 mm/hr 0.00 in0.0 mm
01:08 AM 47.4°F8.6°C 32.9°F0.5°C 57% Calm Calm 1.3 mph2.1 kmh 28.53 in966.1 mb 0.00 in0.0 mm 0.00 in/hr0.0 mm/hr 0.00 in0.0 mm
01:13 AM 47.5°F8.6°C 33.0°F0.6°C 57% 0.8 mph SW1.3 kmh SW 1.6 mph2.6 kmh 28.53 in966.1 mb 0.00 in0.0 mm 0.00 in/hr0.0 mm/hr 0.00 in0.0 mm
01:18 AM 47.5°F8.6°C 33.9°F1.1°C 60% 1.5 mph SW2.4 kmh SW 2.2 mph3.5 kmh 28.53 in966.1 mb 0.00 in0.0 mm 0.00 in/hr0.0 mm/hr 0.00 in0.0 mm
01:23 AM 47.5°F8.6°C 34.3°F1.3°C 60% 1.2 mph SW1.9 kmh SW 2.2 mph3.5 kmh 28.53 in966.1 mb 0.00 in0.0 mm 0.00 in/hr0.0 mm/hr 0.00 in0.0 mm
01:28 AM 47.5°F8.6°C 34.3°F1.3°C 60% 1.4 mph SSW2.3 kmh SSW 2.2 mph3.5 kmh 28.53 in966.1 mb 0.00 in0.0 mm 0.00 in/hr0.0 mm/hr 0.00 in0.0 mm
01:33 AM 47.6°F8.7°C 34.7°F1.5°C 60% 1.8 mph SW2.9 kmh SW 2.7 mph4.3 kmh 28.53 in966.1 mb 0.00 in0.0 mm 0.00 in/hr0.0 mm/hr 0.00 in0.0 mm
01:38 AM 47.7°F8.7°C 34.3°F1.3°C 59% Calm Calm 2.7 mph4.3 kmh 28.53 in966.1 mb 0.00 in0.0 mm 0.00 in/hr0.0 mm/hr 0.00 in0.0 mm
01:43 AM 47.6°F8.7°C 33.8°F1.0°C 58% Calm Calm 2.5 mph4.0 kmh 28.53 in966.1 mb 0.00 in0.0 mm 0.00 in/hr0.0 mm/hr 0.00 in0.0 mm
01:48 AM 47.4°F8.6°C 33.3°F0.7°C 58% 0.1 mph SW0.2 kmh SW 1.3 mph2.1 kmh 28.53 in966.1 mb 0.00 in0.0 mm 0.00 in/hr0.0 mm/hr 0.00 in0.0 mm
01:53 AM 47.3°F8.5°C 33.3°F0.7°C 58% Calm Calm 1.3 mph2.1 kmh 28.53 in966.1 mb 0.00 in0.0 mm 0.00 in/hr0.0 mm/hr 0.00 in0.0 mm
01:58 AM 47.4°F8.6°C 33.3°F0.7°C 58% 0.2 mph SSW0.3 kmh SSW 1.3 mph2.1 kmh 28.53 in966.1 mb 0.00 in0.0 mm 0.00 in/hr0.0 mm/hr 0.00 in0.0 mm
02:03 AM 47.3°F8.5°C 33.7°F0.9°C 59% 0.5 mph SW0.8 kmh SW 2.0 mph3.2 kmh 28.53 in966.1 mb 0.00 in0.0 mm 0.00 in/hr0.0 mm/hr 0.00 in0.0 mm
02:08 AM 47.3°F8.5°C 33.9°F1.1°C 61% 1.0 mph SSW1.6 kmh SSW 2.7 mph4.3 kmh 28.53 in966.1 mb 0.00 in0.0 mm 0.00 in/hr0.0 mm/hr 0.00 in0.0 mm
02:13 AM 47.1°F8.4°C 34.1°F1.2°C 60% 1.0 mph WSW1.6 kmh WSW 2.7 mph4.3 kmh 28.53 in966.1 mb 0.00 in0.0 mm 0.00 in/hr0.0 mm/hr 0.00 in0.0 mm
02:18 AM 47.0°F8.3°C 33.9°F1.1°C 60% 0.8 mph SSE1.3 kmh SSE 2.5 mph4.0 kmh 28.53 in966.1 mb 0.00 in0.0 mm 0.00 in/hr0.0 mm/hr 0.00 in0.0 mm
02:23 AM 46.8°F8.2°C 33.7°F0.9°C 60% Calm Calm 2.5 mph4.0 kmh 28.53 in966.1 mb 0.00 in0.0 mm 0.00 in/hr0.0 mm/hr 0.00 in0.0 mm
02:28 AM 46.5°F8.1°C 33.3°F0.7°C 59% Calm Calm -- 28.53 in966.1 mb 0.00 in0.0 mm 0.00 in/hr0.0 mm/hr 0.00 in0.0 mm
02:33 AM 46.4°F8.0°C 33.1°F0.6°C 60% 1.0 mph SSW1.6 kmh SSW 2.2 mph3.5 kmh 28.53 in966.1 mb 0.00 in0.0 mm 0.00 in/hr0.0 mm/hr 0.00 in0.0 mm
02:38 AM 46.4°F8.0°C 33.7°F0.9°C 61% 0.4 mph WSW0.6 kmh WSW 2.2 mph3.5 kmh 28.53 in966.1 mb 0.00 in0.0 mm 0.00 in/hr0.0 mm/hr 0.00 in0.0 mm
02:43 AM 46.6°F8.1°C 33.9°F1.1°C 62% 1.1 mph SSW1.8 kmh SSW 2.0 mph3.2 kmh 28.50 in965.1 mb 0.00 in0.0 mm 0.00 in/hr0.0 mm/hr 0.00 in0.0 mm
02:48 AM 46.4°F8.0°C 34.1°F1.2°C 61% 0.6 mph WSW1.0 kmh WSW 2.0 mph3.2 kmh 28.50 in965.1 mb 0.00 in0.0 mm 0.00 in/hr0.0 mm/hr 0.00 in0.0 mm
02:53 AM 46.5°F8.1°C 33.6°F0.9°C 60% 0.8 mph SW1.3 kmh SW 2.0 mph3.2 kmh 28.50 in965.1 mb 0.00 in0.0 mm 0.00 in/hr0.0 mm/hr 0.00 in0.0 mm
02:58 AM 46.4°F8.0°C 33.3°F0.7°C 60% Calm Calm 1.6 mph2.6 kmh 28.50 in965.1 mb 0.00 in0.0 mm 0.00 in/hr0.0 mm/hr 0.00 in0.0 mm
03:03 AM 46.1°F7.8°C 33.1°F0.6°C 61% Calm Calm 1.3 mph2.1 kmh 28.50 in965.1 mb 0.00 in0.0 mm 0.00 in/hr0.0 mm/hr 0.00 in0.0 mm
03:08 AM 45.7°F7.6°C 33.0°F0.6°C 61% 0.6 mph SW1.0 kmh SW 1.6 mph2.6 kmh 28.50 in965.1 mb 0.00 in0.0 mm 0.00 in/hr0.0 mm/hr 0.00 in0.0 mm
03:13 AM 45.3°F7.4°C 33.1°F0.6°C 62% 0.9 mph WSW1.4 kmh WSW 2.0 mph3.2 kmh 28.50 in965.1 mb 0.00 in0.0 mm 0.00 in/hr0.0 mm/hr 0.00 in0.0 mm
03:18 AM 45.0°F7.2°C 32.4°F0.2°C 61% 1.3 mph SW2.1 kmh SW 2.0 mph3.2 kmh 28.50 in965.1 mb 0.00 in0.0 mm 0.00 in/hr0.0 mm/hr 0.00 in0.0 mm
03:23 AM 45.0°F7.2°C 32.3°F0.2°C 61% 1.4 mph SW2.3 kmh SW 2.0 mph3.2 kmh 28.50 in965.1 mb 0.00 in0.0 mm 0.00 in/hr0.0 mm/hr 0.00 in0.0 mm
03:28 AM 44.8°F7.1°C 32.2°F0.1°C 61% 0.3 mph SW0.5 kmh SW 2.0 mph3.2 kmh 28.50 in965.1 mb 0.00 in0.0 mm 0.00 in/hr0.0 mm/hr 0.00 in0.0 mm
03:33 AM 44.8°F7.1°C 32.2°F0.1°C 61% 1.1 mph SW1.8 kmh SW 2.2 mph3.5 kmh 28.50 in965.1 mb 0.00 in0.0 mm 0.00 in/hr0.0 mm/hr 0.00 in0.0 mm
03:38 AM 44.8°F7.1°C 32.1°F0.1°C 61% 1.1 mph S1.8 kmh S 2.2 mph3.5 kmh 28.50 in965.1 mb 0.00 in0.0 mm 0.00 in/hr0.0 mm/hr 0.00 in0.0 mm
03:43 AM 44.4°F6.9°C 31.8°F-0.1°C 61% Calm Calm 1.6 mph2.6 kmh 28.50 in965.1 mb 0.00 in0.0 mm 0.00 in/hr0.0 mm/hr 0.00 in0.0 mm
03:48 AM 44.1°F6.7°C 31.5°F-0.3°C 61% 0.4 mph S0.6 kmh S 2.0 mph3.2 kmh 28.50 in965.1 mb 0.00 in0.0 mm 0.00 in/hr0.0 mm/hr 0.00 in0.0 mm
03:53 AM 43.7°F6.5°C 31.1°F-0.5°C 61% Calm Calm 2.0 mph3.2 kmh 28.50 in965.1 mb 0.00 in0.0 mm 0.00 in/hr0.0 mm/hr 0.00 in0.0 mm
03:58 AM 43.6°F6.4°C 31.4°F-0.3°C 62% 0.1 mph WSW0.2 kmh WSW 2.2 mph3.5 kmh 28.47 in964.1 mb 0.00 in0.0 mm 0.00 in/hr0.0 mm/hr 0.00 in0.0 mm
04:03 AM 44.1°F6.7°C 32.2°F0.1°C 62% 0.4 mph SSW0.6 kmh SSW 2.5 mph4.0 kmh 28.47 in964.1 mb 0.00 in0.0 mm 0.00 in/hr0.0 mm/hr 0.00 in0.0 mm
04:08 AM 43.7°F6.5°C 31.5°F-0.3°C 62% Calm Calm 2.5 mph4.0 kmh 28.47 in964.1 mb 0.00 in0.0 mm 0.00 in/hr0.0 mm/hr 0.00 in0.0 mm
04:13 AM 43.4°F6.3°C 31.3°F-0.4°C 62% Calm Calm -- 28.47 in964.1 mb 0.00 in0.0 mm 0.00 in/hr0.0 mm/hr 0.00 in0.0 mm
04:18 AM 43.3°F6.3°C 31.2°F-0.4°C 62% Calm Calm 0.9 mph1.4 kmh 28.47 in964.1 mb 0.00 in0.0 mm 0.00 in/hr0.0 mm/hr 0.00 in0.0 mm
04:23 AM 43.3°F6.3°C 31.5°F-0.3°C 63% 0.4 mph SSW0.6 kmh SSW 2.2 mph3.5 kmh 28.47 in964.1 mb 0.00 in0.0 mm 0.00 in/hr0.0 mm/hr 0.00 in0.0 mm
04:28 AM 43.3°F6.3°C 32.3°F0.2°C 65% 1.5 mph SW2.4 kmh SW 2.2 mph3.5 kmh 28.50 in965.1 mb 0.00 in0.0 mm 0.00 in/hr0.0 mm/hr 0.00 in0.0 mm
04:33 AM 43.5°F6.4°C 32.5°F0.3°C 65% 1.0 mph S1.6 kmh S 2.2 mph3.5 kmh 28.50 in965.1 mb 0.00 in0.0 mm 0.00 in/hr0.0 mm/hr 0.00 in0.0 mm
04:38 AM 43.3°F6.3°C 32.0°F0.0°C 64% 0.3 mph WSW0.5 kmh WSW 2.0 mph3.2 kmh 28.50 in965.1 mb 0.00 in0.0 mm 0.00 in/hr0.0 mm/hr 0.00 in0.0 mm
04:43 AM 43.3°F6.3°C 31.6°F-0.2°C 63% Calm Calm 1.3 mph2.1 kmh 28.47 in964.1 mb 0.00 in0.0 mm 0.00 in/hr0.0 mm/hr 0.00 in0.0 mm
04:48 AM 43.7°F6.5°C 32.0°F0.0°C 63% 0.1 mph SW0.2 kmh SW 1.6 mph2.6 kmh 28.47 in964.1 mb 0.00 in0.0 mm 0.00 in/hr0.0 mm/hr 0.00 in0.0 mm
04:53 AM 44.2°F6.8°C 32.5°F0.3°C 63% Calm Calm 1.6 mph2.6 kmh 28.47 in964.1 mb 0.00 in0.0 mm 0.00 in/hr0.0 mm/hr 0.00 in0.0 mm
04:58 AM 44.1°F6.7°C 32.2°F0.1°C 63% Calm Calm 1.3 mph2.1 kmh 28.50 in965.1 mb 0.00 in0.0 mm 0.00 in/hr0.0 mm/hr 0.00 in0.0 mm
05:03 AM 43.7°F6.5°C 31.9°F-0.1°C 63% Calm Calm -- 28.50 in965.1 mb 0.00 in0.0 mm 0.00 in/hr0.0 mm/hr 0.00 in0.0 mm
05:08 AM 43.6°F6.4°C 31.7°F-0.2°C 63% Calm Calm -- 28.50 in965.1 mb 0.00 in0.0 mm 0.00 in/hr0.0 mm/hr 0.00 in0.0 mm
05:13 AM 43.9°F6.6°C 31.7°F-0.2°C 62% Calm Calm -- 28.47 in964.1 mb 0.00 in0.0 mm 0.00 in/hr0.0 mm/hr 0.00 in0.0 mm
05:18 AM 44.2°F6.8°C 32.5°F0.3°C 64% 1.3 mph SW2.1 kmh SW 2.0 mph3.2 kmh 28.47 in964.1 mb 0.00 in0.0 mm 0.00 in/hr0.0 mm/hr 0.00 in0.0 mm
05:23 AM 44.6°F7.0°C 33.1°F0.6°C 63% 1.0 mph SW1.6 kmh SW 2.0 mph3.2 kmh 28.47 in964.1 mb 0.00 in0.0 mm 0.00 in/hr0.0 mm/hr 0.00 in0.0 mm
05:28 AM 45.0°F7.2°C 33.3°F0.7°C 63% Calm Calm 2.0 mph3.2 kmh 28.47 in964.1 mb 0.00 in0.0 mm 0.00 in/hr0.0 mm/hr 0.00 in0.0 mm
05:33 AM 45.1°F7.3°C 33.2°F0.7°C 63% Calm Calm 1.3 mph2.1 kmh 28.47 in964.1 mb 0.00 in0.0 mm 0.00 in/hr0.0 mm/hr 0.00 in0.0 mm
05:38 AM 45.0°F7.2°C 33.2°F0.7°C 63% Calm Calm -- 28.47 in964.1 mb 0.00 in0.0 mm 0.00 in/hr0.0 mm/hr 0.00 in0.0 mm
05:43 AM 45.1°F7.3°C 33.3°F0.7°C 63% Calm Calm -- 28.47 in964.1 mb 0.00 in0.0 mm 0.00 in/hr0.0 mm/hr 0.00 in0.0 mm
05:48 AM 45.3°F7.4°C 33.4°F0.8°C 63% 0.1 mph SW0.2 kmh SW 1.1 mph1.8 kmh 28.47 in964.1 mb 0.00 in0.0 mm 0.00 in/hr0.0 mm/hr 0.00 in0.0 mm
05:53 AM 45.6°F7.6°C 33.5°F0.8°C 63% 0.9 mph SW1.4 kmh SW 2.5 mph4.0 kmh 28.47 in964.1 mb 0.00 in0.0 mm 0.00 in/hr0.0 mm/hr 0.00 in0.0 mm
05:58 AM 46.0°F7.8°C 34.1°F1.2°C 63% Calm Calm 2.5 mph4.0 kmh 28.53 in966.1 mb 0.00 in0.0 mm 0.00 in/hr0.0 mm/hr 0.00 in0.0 mm
06:03 AM 46.2°F7.9°C 34.4°F1.3°C 64% 1.1 mph SW1.8 kmh SW 1.6 mph2.6 kmh 28.53 in966.1 mb 0.00 in0.0 mm 0.00 in/hr0.0 mm/hr 0.00 in0.0 mm
06:08 AM 46.5°F8.1°C 34.4°F1.3°C 62% 0.4 mph W0.6 kmh W 1.6 mph2.6 kmh 28.53 in966.1 mb 0.00 in0.0 mm 0.00 in/hr0.0 mm/hr 0.00 in0.0 mm
06:13 AM 46.7°F8.2°C 34.9°F1.6°C 65% 2.1 mph SSW3.4 kmh SSW 3.1 mph5.0 kmh 28.47 in964.1 mb 0.00 in0.0 mm 0.00 in/hr0.0 mm/hr 0.00 in0.0 mm
06:18 AM 46.6°F8.1°C 35.1°F1.7°C 64% 1.7 mph SW2.7 kmh SW 3.1 mph5.0 kmh 28.47 in964.1 mb 0.00 in0.0 mm 0.00 in/hr0.0 mm/hr 0.00 in0.0 mm
06:23 AM 46.6°F8.1°C 34.8°F1.6°C 63% Calm Calm 3.1 mph5.0 kmh 28.47 in964.1 mb 0.00 in0.0 mm 0.00 in/hr0.0 mm/hr 0.00 in0.0 mm
06:28 AM 46.6°F8.1°C 34.6°F1.4°C 63% 0.3 mph E0.5 kmh E 2.0 mph3.2 kmh 28.47 in964.1 mb 0.00 in0.0 mm 0.00 in/hr0.0 mm/hr 0.00 in0.0 mm
06:33 AM 46.6°F8.1°C 34.2°F1.2°C 61% Calm Calm 1.3 mph2.1 kmh 28.47 in964.1 mb 0.00 in0.0 mm 0.00 in/hr0.0 mm/hr 0.00 in0.0 mm
06:38 AM 47.0°F8.3°C 34.6°F1.4°C 62% Calm Calm -- 28.47 in964.1 mb 0.00 in0.0 mm 0.00 in/hr0.0 mm/hr 0.00 in0.0 mm
06:43 AM 47.3°F8.5°C 34.5°F1.4°C 61% Calm Calm -- 28.53 in966.1 mb 0.00 in0.0 mm 0.00 in/hr0.0 mm/hr 0.00 in0.0 mm
06:48 AM 47.8°F8.8°C 34.7°F1.5°C 60% Calm Calm -- 28.53 in966.1 mb 0.00 in0.0 mm 0.00 in/hr0.0 mm/hr 0.00 in0.0 mm
06:53 AM 48.4°F9.1°C 34.7°F1.5°C 59% 1.4 mph SW2.3 kmh SW 2.0 mph3.2 kmh 28.53 in966.1 mb 0.00 in0.0 mm 0.00 in/hr0.0 mm/hr 0.00 in0.0 mm
06:58 AM 48.7°F9.3°C 34.8°F1.6°C 59% 1.6 mph WSW2.6 kmh WSW 2.9 mph4.7 kmh 28.47 in964.1 mb 0.00 in0.0 mm 0.00 in/hr0.0 mm/hr 0.00 in0.0 mm
07:03 AM 49.2°F9.6°C 35.5°F1.9°C 59% 0.5 mph WSW0.8 kmh WSW 2.9 mph4.7 kmh 28.47 in964.1 mb 0.00 in0.0 mm 0.00 in/hr0.0 mm/hr 0.00 in0.0 mm
07:08 AM 50.0°F10.0°C 36.3°F2.4°C 59% 1.1 mph NE1.8 kmh NE 2.0 mph3.2 kmh 28.47 in964.1 mb 0.00 in0.0 mm 0.00 in/hr0.0 mm/hr 0.00 in0.0 mm
07:13 AM 50.4°F10.2°C 36.7°F2.6°C 59% 0.7 mph SE1.1 kmh SE 2.0 mph3.2 kmh 28.50 in965.1 mb 0.00 in0.0 mm 0.00 in/hr0.0 mm/hr 0.00 in0.0 mm
07:18 AM 50.6°F10.3°C 36.9°F2.7°C 59% 0.3 mph S0.5 kmh S 1.3 mph2.1 kmh 28.50 in965.1 mb 0.00 in0.0 mm 0.00 in/hr0.0 mm/hr 0.00 in0.0 mm
07:23 AM 50.9°F10.5°C 37.1°F2.8°C 59% 0.9 mph S1.4 kmh S 1.3 mph2.1 kmh 28.50 in965.1 mb 0.00 in0.0 mm 0.00 in/hr0.0 mm/hr 0.00 in0.0 mm
07:28 AM 51.1°F10.6°C 37.1°F2.8°C 58% 0.7 mph S1.1 kmh S 1.6 mph2.6 kmh 28.53 in966.1 mb 0.00 in0.0 mm 0.00 in/hr0.0 mm/hr 0.00 in0.0 mm
07:33 AM 51.2°F10.7°C 36.7°F2.6°C 57% 0.4 mph WSW0.6 kmh WSW 1.6 mph2.6 kmh 28.53 in966.1 mb 0.00 in0.0 mm 0.00 in/hr0.0 mm/hr 0.00 in0.0 mm
07:38 AM 51.5°F10.8°C 36.8°F2.7°C 57% Calm Calm 1.3 mph2.1 kmh 28.53 in966.1 mb 0.00 in0.0 mm 0.00 in/hr0.0 mm/hr 0.00 in0.0 mm
07:43 AM 51.9°F11.1°C 36.7°F2.6°C 56% Calm Calm -- 28.50 in965.1 mb 0.00 in0.0 mm 0.00 in/hr0.0 mm/hr 0.00 in0.0 mm
07:48 AM 52.2°F11.2°C 37.0°F2.8°C 56% 0.9 mph NNE1.4 kmh NNE 0.9 mph1.4 kmh 28.50 in965.1 mb 0.00 in0.0 mm 0.00 in/hr0.0 mm/hr 0.00 in0.0 mm
07:53 AM 52.7°F11.5°C 37.5°F3.1°C 56% 0.9 mph NNE1.4 kmh NNE 0.9 mph1.4 kmh 28.50 in965.1 mb 0.00 in0.0 mm 0.00 in/hr0.0 mm/hr 0.00 in0.0 mm
07:58 AM 53.3°F11.8°C 38.0°F3.3°C 55% 0.9 mph NNE1.4 kmh NNE -- 28.47 in964.1 mb 0.00 in0.0 mm 0.00 in/hr0.0 mm/hr 0.00 in0.0 mm
08:03 AM 54.1°F12.3°C 37.9°F3.3°C 54% Calm Calm -- 28.47 in964.1 mb 0.00 in0.0 mm 0.00 in/hr0.0 mm/hr 0.00 in0.0 mm
08:08 AM 54.7°F12.6°C 37.9°F3.3°C 52% 1.1 mph N1.8 kmh N 1.6 mph2.6 kmh 28.47 in964.1 mb 0.00 in0.0 mm 0.00 in/hr0.0 mm/hr 0.00 in0.0 mm
08:13 AM 55.2°F12.9°C 37.3°F2.9°C 50% 1.3 mph SE2.1 kmh SE 2.7 mph4.3 kmh 28.47 in964.1 mb 0.00 in0.0 mm 0.00 in/hr0.0 mm/hr 0.00 in0.0 mm
08:18 AM 55.9°F13.3°C 37.3°F2.9°C 49% 1.3 mph E2.1 kmh E 2.7 mph4.3 kmh 28.47 in964.1 mb 0.00 in0.0 mm 0.00 in/hr0.0 mm/hr 0.00 in0.0 mm
08:23 AM 57.0°F13.9°C 37.6°F3.1°C 48% 0.6 mph SE1.0 kmh SE 3.6 mph5.8 kmh 28.47 in964.1 mb 0.00 in0.0 mm 0.00 in/hr0.0 mm/hr 0.00 in0.0 mm
08:28 AM 58.1°F14.5°C 38.3°F3.5°C 47% 0.6 mph ENE1.0 kmh ENE 3.6 mph5.8 kmh 28.47 in964.1 mb 0.00 in0.0 mm 0.00 in/hr0.0 mm/hr 0.00 in0.0 mm
08:33 AM 58.5°F14.7°C 38.1°F3.4°C 46% 0.9 mph NE1.4 kmh NE 1.3 mph2.1 kmh 28.47 in964.1 mb 0.00 in0.0 mm 0.00 in/hr0.0 mm/hr 0.00 in0.0 mm
08:38 AM 58.6°F14.8°C 37.8°F3.2°C 46% 1.5 mph SSE2.4 kmh SSE 2.7 mph4.3 kmh 28.47 in964.1 mb 0.00 in0.0 mm 0.00 in/hr0.0 mm/hr 0.00 in0.0 mm
08:43 AM 58.9°F14.9°C 37.7°F3.2°C 45% 2.9 mph SE4.7 kmh SE 3.4 mph5.5 kmh 28.47 in964.1 mb 0.00 in0.0 mm 0.00 in/hr0.0 mm/hr 0.00 in0.0 mm
08:48 AM 59.6°F15.3°C 38.0°F3.3°C 44% 2.7 mph SSE4.3 kmh SSE 3.4 mph5.5 kmh 28.47 in964.1 mb 0.00 in0.0 mm 0.00 in/hr0.0 mm/hr 0.00 in0.0 mm
08:53 AM 59.9°F15.5°C 37.2°F2.9°C 43% 4.5 mph SSE7.2 kmh SSE 3.8 mph6.1 kmh 28.47 in964.1 mb 0.00 in0.0 mm 0.00 in/hr0.0 mm/hr 0.00 in0.0 mm
08:58 AM 58.8°F14.9°C 35.6°F2.0°C 42% 5.0 mph SSW8.0 kmh SSW 11.0 mph17.7 kmh 28.50 in965.1 mb 0.00 in0.0 mm 0.00 in/hr0.0 mm/hr 0.00 in0.0 mm
09:03 AM 58.3°F14.6°C 35.6°F2.0°C 43% 4.7 mph SE7.6 kmh SE 11.0 mph17.7 kmh 28.50 in965.1 mb 0.00 in0.0 mm 0.00 in/hr0.0 mm/hr 0.00 in0.0 mm
09:08 AM 58.3°F14.6°C 36.0°F2.2°C 43% 3.2 mph SE5.1 kmh SE 8.1 mph13.0 kmh 28.50 in965.1 mb 0.00 in0.0 mm 0.00 in/hr0.0 mm/hr 0.00 in0.0 mm
09:13 AM 58.5°F14.7°C 36.1°F2.3°C 43% 2.7 mph NNE4.3 kmh NNE 5.4 mph8.7 kmh 28.47 in964.1 mb 0.00 in0.0 mm 0.00 in/hr0.0 mm/hr 0.00 in0.0 mm
09:18 AM 58.2°F14.6°C 35.7°F2.1°C 43% 4.0 mph SE6.4 kmh SE 5.8 mph9.3 kmh 28.47 in964.1 mb 0.00 in0.0 mm 0.00 in/hr0.0 mm/hr 0.00 in0.0 mm
09:23 AM 58.2°F14.6°C 35.8°F2.1°C 43% 3.5 mph SE5.6 kmh SE 5.8 mph9.3 kmh 28.47 in964.1 mb 0.00 in0.0 mm 0.00 in/hr0.0 mm/hr 0.00 in0.0 mm
09:28 AM 57.9°F14.4°C 35.5°F1.9°C 43% 4.5 mph SSE7.2 kmh SSE 10.3 mph16.6 kmh 28.50 in965.1 mb 0.00 in0.0 mm 0.00 in/hr0.0 mm/hr 0.00 in0.0 mm
09:33 AM 57.4°F14.1°C 35.3°F1.8°C 44% 4.5 mph SE7.2 kmh SE 10.7 mph17.2 kmh 28.50 in965.1 mb 0.00 in0.0 mm 0.00 in/hr0.0 mm/hr 0.00 in0.0 mm
09:38 AM 56.7°F13.7°C 35.0°F1.7°C 44% 5.2 mph SE8.4 kmh SE 10.7 mph17.2 kmh 28.50 in965.1 mb 0.00 in0.0 mm 0.00 in/hr0.0 mm/hr 0.00 in0.0 mm
09:43 AM 56.1°F13.4°C 34.9°F1.6°C 45% 4.0 mph S6.4 kmh S 10.7 mph17.2 kmh 28.50 in965.1 mb 0.00 in0.0 mm 0.00 in/hr0.0 mm/hr 0.00 in0.0 mm
09:48 AM 55.5°F13.1°C 34.7°F1.5°C 46% 5.2 mph S8.4 kmh S 10.7 mph17.2 kmh 28.50 in965.1 mb 0.00 in0.0 mm 0.00 in/hr0.0 mm/hr 0.00 in0.0 mm
09:53 AM 54.7°F12.6°C 34.3°F1.3°C 46% 3.1 mph SSW5.0 kmh SSW 8.7 mph14.0 kmh 28.50 in965.1 mb 0.00 in0.0 mm 0.00 in/hr0.0 mm/hr 0.00 in0.0 mm
09:58 AM 54.1°F12.3°C 34.3°F1.3°C 47% 5.6 mph S9.0 kmh S 8.5 mph13.7 kmh 28.50 in965.1 mb 0.00 in0.0 mm 0.00 in/hr0.0 mm/hr 0.00 in0.0 mm
10:03 AM 53.5°F11.9°C 34.1°F1.2°C 48% 4.5 mph S7.2 kmh S 8.5 mph13.7 kmh 28.50 in965.1 mb 0.00 in0.0 mm 0.00 in/hr0.0 mm/hr 0.00 in0.0 mm
10:08 AM 53.0°F11.7°C 34.2°F1.2°C 49% 3.1 mph S5.0 kmh S 8.5 mph13.7 kmh 28.50 in965.1 mb 0.00 in0.0 mm 0.00 in/hr0.0 mm/hr 0.00 in0.0 mm
10:13 AM 52.6°F11.4°C 34.2°F1.2°C 50% 2.8 mph SSW4.5 kmh SSW 6.5 mph10.5 kmh 28.50 in965.1 mb 0.00 in0.0 mm 0.00 in/hr0.0 mm/hr 0.00 in0.0 mm
10:18 AM 52.2°F11.2°C 34.1°F1.2°C 50% 2.4 mph SSE3.9 kmh SSE 6.5 mph10.5 kmh 28.50 in965.1 mb 0.00 in0.0 mm 0.00 in/hr0.0 mm/hr 0.00 in0.0 mm
10:23 AM 51.9°F11.1°C 34.2°F1.2°C 51% 4.4 mph SSW7.1 kmh SSW 6.3 mph10.1 kmh 28.50 in965.1 mb 0.00 in0.0 mm 0.00 in/hr0.0 mm/hr 0.00 in0.0 mm
10:28 AM 51.6°F10.9°C 34.9°F1.6°C 54% 2.9 mph SW4.7 kmh SW 7.4 mph11.9 kmh 28.53 in966.1 mb 0.00 in0.0 mm 0.00 in/hr0.0 mm/hr 0.00 in0.0 mm
10:33 AM 51.0°F10.6°C 36.0°F2.2°C 58% 6.2 mph S10.0 kmh S 10.5 mph16.9 kmh 28.53 in966.1 mb 0.00 in0.0 mm 0.00 in/hr0.0 mm/hr 0.00 in0.0 mm
10:38 AM 50.3°F10.2°C 37.6°F3.1°C 63% 4.2 mph S6.8 kmh S 10.5 mph16.9 kmh 28.53 in966.1 mb 0.00 in0.0 mm 0.00 in/hr0.0 mm/hr 0.00 in0.0 mm
10:43 AM 49.8°F9.9°C 38.5°F3.6°C 66% 3.1 mph S5.0 kmh S 7.8 mph12.6 kmh 28.53 in966.1 mb 0.00 in0.0 mm 0.00 in/hr0.0 mm/hr 0.00 in0.0 mm
10:48 AM 49.2°F9.6°C 39.2°F4.0°C 69% 3.9 mph S6.3 kmh S 10.1 mph16.3 kmh 28.53 in966.1 mb 0.00 in0.0 mm 0.00 in/hr0.0 mm/hr 0.00 in0.0 mm
10:53 AM 48.8°F9.3°C 39.7°F4.3°C 72% 4.3 mph S6.9 kmh S 10.1 mph16.3 kmh 28.53 in966.1 mb 0.00 in0.0 mm 0.00 in/hr0.0 mm/hr 0.00 in0.0 mm
10:58 AM 48.2°F9.0°C 40.1°F4.5°C 74% 6.2 mph S10.0 kmh S 10.1 mph16.3 kmh 28.53 in966.1 mb 0.00 in0.0 mm 0.00 in/hr0.0 mm/hr 0.00 in0.0 mm
11:03 AM 47.7°F8.7°C 40.1°F4.5°C 74% 2.1 mph SW3.4 kmh SW 10.1 mph16.3 kmh 28.53 in966.1 mb 0.00 in0.0 mm 0.00 in/hr0.0 mm/hr 0.00 in0.0 mm
11:08 AM 47.5°F8.6°C 40.0°F4.4°C 76% 2.3 mph NW3.7 kmh NW 8.1 mph13.0 kmh 28.53 in966.1 mb 0.00 in0.0 mm 0.00 in/hr0.0 mm/hr 0.00 in0.0 mm
11:13 AM 47.3°F8.5°C 40.4°F4.7°C 77% 1.6 mph E2.6 kmh E 4.9 mph7.9 kmh 28.53 in966.1 mb 0.00 in0.0 mm 0.00 in/hr0.0 mm/hr 0.00 in0.0 mm
11:18 AM 47.3°F8.5°C 41.3°F5.2°C 80% 2.4 mph SE3.9 kmh SE 5.4 mph8.7 kmh 28.53 in966.1 mb 0.00 in0.0 mm 0.00 in/hr0.0 mm/hr 0.00 in0.0 mm
11:23 AM 47.3°F8.5°C 41.4°F5.2°C 80% 1.1 mph SE1.8 kmh SE 5.4 mph8.7 kmh 28.53 in966.1 mb 0.00 in0.0 mm 0.00 in/hr0.0 mm/hr 0.00 in0.0 mm
11:28 AM 47.3°F8.5°C 41.4°F5.2°C 80% 2.0 mph SSE3.2 kmh SSE 3.8 mph6.1 kmh 28.53 in966.1 mb 0.00 in0.0 mm 0.00 in/hr0.0 mm/hr 0.00 in0.0 mm
11:33 AM 47.2°F8.4°C 41.1°F5.1°C 79% 1.3 mph E2.1 kmh E 3.6 mph5.8 kmh 28.53 in966.1 mb 0.00 in0.0 mm 0.00 in/hr0.0 mm/hr 0.00 in0.0 mm
11:38 AM 47.1°F8.4°C 41.2°F5.1°C 80% 1.6 mph E2.6 kmh E 2.5 mph4.0 kmh 28.53 in966.1 mb 0.00 in0.0 mm 0.00 in/hr0.0 mm/hr 0.00 in0.0 mm
11:43 AM 47.0°F8.3°C 42.0°F5.6°C 83% 2.2 mph E3.5 kmh E 2.9 mph4.7 kmh 28.53 in966.1 mb 0.00 in0.0 mm 0.00 in/hr0.0 mm/hr 0.00 in0.0 mm
11:48 AM 46.9°F8.3°C 42.2°F5.7°C 83% 1.4 mph NE2.3 kmh NE 3.4 mph5.5 kmh 28.53 in966.1 mb 0.00 in0.0 mm 0.00 in/hr0.0 mm/hr 0.00 in0.0 mm
11:53 AM 46.9°F8.3°C 42.5°F5.8°C 86% 2.4 mph ESE3.9 kmh ESE 3.6 mph5.8 kmh 28.53 in966.1 mb 0.00 in0.0 mm 0.00 in/hr0.0 mm/hr 0.00 in0.0 mm
11:58 AM 46.8°F8.2°C 42.5°F5.8°C 84% 1.9 mph E3.1 kmh E 3.8 mph6.1 kmh 28.56 in967.2 mb 0.00 in0.0 mm 0.00 in/hr0.0 mm/hr 0.00 in0.0 mm
12:03 PM 46.9°F8.3°C 42.8°F6.0°C 86% 2.8 mph SE4.5 kmh SE 4.0 mph6.4 kmh 28.56 in967.2 mb 0.00 in0.0 mm 0.00 in/hr0.0 mm/hr 0.00 in0.0 mm
12:08 PM 46.8°F8.2°C 42.7°F5.9°C 87% 2.0 mph E3.2 kmh E 4.0 mph6.4 kmh 28.56 in967.2 mb 0.00 in0.0 mm 0.00 in/hr0.0 mm/hr 0.00 in0.0 mm
12:13 PM 46.7°F8.2°C 42.9°F6.1°C 87% 2.3 mph ESE3.7 kmh ESE 4.0 mph6.4 kmh 28.56 in967.2 mb 0.00 in0.0 mm 0.00 in/hr0.0 mm/hr 0.00 in0.0 mm
12:18 PM 46.6°F8.1°C 42.8°F6.0°C 87% 1.8 mph E2.9 kmh E 4.0 mph6.4 kmh 28.56 in967.2 mb 0.00 in0.0 mm 0.00 in/hr0.0 mm/hr 0.00 in0.0 mm
12:23 PM 46.6°F8.1°C 42.8°F6.0°C 87% 1.5 mph SE2.4 kmh SE 4.0 mph6.4 kmh 28.56 in967.2 mb 0.00 in0.0 mm 0.00 in/hr0.0 mm/hr 0.00 in0.0 mm
12:28 PM 46.6°F8.1°C 43.3°F6.3°C 88% 1.2 mph SE1.9 kmh SE 4.0 mph6.4 kmh 28.56 in967.2 mb 0.00 in0.0 mm 0.00 in/hr0.0 mm/hr 0.00 in0.0 mm
12:33 PM 46.8°F8.2°C 43.5°F6.4°C 89% 1.8 mph S2.9 kmh S 4.0 mph6.4 kmh 28.56 in967.2 mb 0.00 in0.0 mm 0.00 in/hr0.0 mm/hr 0.00 in0.0 mm
12:38 PM 47.2°F8.4°C 44.0°F6.7°C 88% 1.0 mph SE1.6 kmh SE 4.3 mph6.9 kmh 28.56 in967.2 mb 0.00 in0.0 mm 0.00 in/hr0.0 mm/hr 0.00 in0.0 mm
12:43 PM 47.3°F8.5°C 44.0°F6.7°C 88% 2.1 mph NNE3.4 kmh NNE 5.6 mph9.0 kmh 28.56 in967.2 mb 0.00 in0.0 mm 0.00 in/hr0.0 mm/hr 0.00 in0.0 mm
12:48 PM 47.4°F8.6°C 44.0°F6.7°C 88% 2.5 mph ESE4.0 kmh ESE 5.6 mph9.0 kmh 28.56 in967.2 mb 0.00 in0.0 mm 0.00 in/hr0.0 mm/hr 0.00 in0.0 mm
12:53 PM 47.4°F8.6°C 44.0°F6.7°C 88% 2.8 mph E4.5 kmh E 4.3 mph6.9 kmh 28.56 in967.2 mb 0.00 in0.0 mm 0.00 in/hr0.0 mm/hr 0.00 in0.0 mm
12:58 PM 47.6°F8.7°C 44.1°F6.7°C 87% 2.2 mph SE3.5 kmh SE 6.0 mph9.7 kmh 28.56 in967.2 mb 0.00 in0.0 mm 0.00 in/hr0.0 mm/hr 0.00 in0.0 mm
01:03 PM 47.7°F8.7°C 43.8°F6.6°C 86% 1.6 mph SE2.6 kmh SE 6.0 mph9.7 kmh 28.56 in967.2 mb 0.00 in0.0 mm 0.00 in/hr0.0 mm/hr 0.00 in0.0 mm
01:08 PM 47.6°F8.7°C 43.6°F6.4°C 87% 2.4 mph SSE3.9 kmh SSE 5.4 mph8.7 kmh 28.56 in967.2 mb 0.00 in0.0 mm 0.00 in/hr0.0 mm/hr 0.00 in0.0 mm
01:13 PM 47.4°F8.6°C 43.6°F6.4°C 87% 3.2 mph SE5.1 kmh SE 6.0 mph9.7 kmh 28.56 in967.2 mb 0.00 in0.0 mm 0.00 in/hr0.0 mm/hr 0.00 in0.0 mm
01:18 PM 47.1°F8.4°C 43.1°F6.2°C 86% 4.2 mph SSW6.8 kmh SSW 7.4 mph11.9 kmh 28.56 in967.2 mb 0.00 in0.0 mm 0.00 in/hr0.0 mm/hr 0.00 in0.0 mm
01:23 PM 46.9°F8.3°C 42.8°F6.0°C 86% 3.3 mph SSE5.3 kmh SSE 7.4 mph11.9 kmh 28.56 in967.2 mb 0.00 in0.0 mm 0.00 in/hr0.0 mm/hr 0.00 in0.0 mm
01:28 PM 46.7°F8.2°C 42.6°F5.9°C 86% 2.0 mph SE3.2 kmh SE 7.8 mph12.6 kmh 28.56 in967.2 mb 0.00 in0.0 mm 0.00 in/hr0.0 mm/hr 0.00 in0.0 mm
01:33 PM 46.6°F8.1°C 42.6°F5.9°C 87% 2.7 mph S4.3 kmh S 7.8 mph12.6 kmh 28.56 in967.2 mb 0.00 in0.0 mm 0.00 in/hr0.0 mm/hr 0.00 in0.0 mm
01:38 PM 46.4°F8.0°C 42.7°F5.9°C 87% 1.9 mph SSE3.1 kmh SSE 6.0 mph9.7 kmh 28.56 in967.2 mb 0.00 in0.0 mm 0.00 in/hr0.0 mm/hr 0.00 in0.0 mm
01:43 PM 46.4°F8.0°C 42.6°F5.9°C 87% 2.8 mph SSE4.5 kmh SSE 6.0 mph9.7 kmh 28.56 in967.2 mb 0.00 in0.0 mm 0.00 in/hr0.0 mm/hr 0.00 in0.0 mm
01:48 PM 46.2°F7.9°C 42.8°F6.0°C 88% 4.0 mph S6.4 kmh S 5.4 mph8.7 kmh 28.56 in967.2 mb 0.00 in0.0 mm 0.00 in/hr0.0 mm/hr 0.00 in0.0 mm
01:53 PM 46.0°F7.8°C 43.1°F6.2°C 90% 3.3 mph SE5.3 kmh SE 7.6 mph12.2 kmh 28.56 in967.2 mb 0.00 in0.0 mm 0.00 in/hr0.0 mm/hr 0.00 in0.0 mm
01:58 PM 46.0°F7.8°C 43.4°F6.3°C 91% 3.0 mph S4.8 kmh S 7.6 mph12.2 kmh 28.56 in967.2 mb 0.00 in0.0 mm 0.00 in/hr0.0 mm/hr 0.00 in0.0 mm
02:03 PM 45.8°F7.7°C 43.7°F6.5°C 93% 3.8 mph SSE6.1 kmh SSE 5.8 mph9.3 kmh 28.56 in967.2 mb 0.00 in0.0 mm 0.00 in/hr0.0 mm/hr 0.00 in0.0 mm
02:08 PM 45.7°F7.6°C 43.9°F6.6°C 93% 2.1 mph SE3.4 kmh SE 5.8 mph9.3 kmh 28.56 in967.2 mb 0.00 in0.0 mm 0.00 in/hr0.0 mm/hr 0.00 in0.0 mm
02:13 PM 45.5°F7.5°C 43.8°F6.6°C 94% 3.2 mph S5.1 kmh S 6.3 mph10.1 kmh 28.56 in967.2 mb 0.00 in0.0 mm 0.00 in/hr0.0 mm/hr 0.00 in0.0 mm
02:18 PM 45.5°F7.5°C 44.0°F6.7°C 94% 3.2 mph S5.1 kmh S 6.3 mph10.1 kmh 28.56 in967.2 mb 0.00 in0.0 mm 0.00 in/hr0.0 mm/hr 0.00 in0.0 mm
02:23 PM 45.3°F7.4°C 44.1°F6.7°C 96% 2.7 mph SE4.3 kmh SE 6.7 mph10.8 kmh 28.56 in967.2 mb 0.00 in0.0 mm 0.00 in/hr0.0 mm/hr 0.00 in0.0 mm
02:28 PM 45.3°F7.4°C 44.1°F6.7°C 96% 2.8 mph S4.5 kmh S 6.7 mph10.8 kmh 28.59 in968.2 mb 0.00 in0.0 mm 0.00 in/hr0.0 mm/hr 0.00 in0.0 mm
02:33 PM 45.1°F7.3°C 43.9°F6.6°C 96% 4.5 mph SSE7.2 kmh SSE 7.4 mph11.9 kmh 28.59 in968.2 mb 0.00 in0.0 mm 0.00 in/hr0.0 mm/hr 0.00 in0.0 mm
02:38 PM 45.0°F7.2°C 43.8°F6.6°C 96% 1.7 mph SSE2.7 kmh SSE 7.4 mph11.9 kmh 28.59 in968.2 mb 0.00 in0.0 mm 0.00 in/hr0.0 mm/hr 0.00 in0.0 mm
02:43 PM 45.0°F7.2°C 43.6°F6.4°C 94% 3.5 mph SSW5.6 kmh SSW 6.0 mph9.7 kmh 28.56 in967.2 mb 0.00 in0.0 mm 0.00 in/hr0.0 mm/hr 0.00 in0.0 mm
02:48 PM 44.8°F7.1°C 43.3°F6.3°C 94% 4.4 mph S7.1 kmh S 8.1 mph13.0 kmh 28.56 in967.2 mb 0.00 in0.0 mm 0.00 in/hr0.0 mm/hr 0.00 in0.0 mm
02:53 PM 44.8°F7.1°C 43.3°F6.3°C 94% 2.0 mph SE3.2 kmh SE 8.1 mph13.0 kmh 28.56 in967.2 mb 0.00 in0.0 mm 0.00 in/hr0.0 mm/hr 0.00 in0.0 mm
02:58 PM 44.8°F7.1°C 43.3°F6.3°C 94% 1.7 mph SW2.7 kmh SW 7.2 mph11.6 kmh 28.59 in968.2 mb 0.00 in0.0 mm 0.00 in/hr0.0 mm/hr 0.00 in0.0 mm
03:03 PM 44.7°F7.1°C 42.9°F6.1°C 93% 3.4 mph S5.5 kmh S 6.0 mph9.7 kmh 28.59 in968.2 mb 0.00 in0.0 mm 0.00 in/hr0.0 mm/hr 0.00 in0.0 mm
03:08 PM 44.6°F7.0°C 42.8°F6.0°C 93% 3.1 mph SSW5.0 kmh SSW 6.0 mph9.7 kmh 28.59 in968.2 mb 0.00 in0.0 mm 0.00 in/hr0.0 mm/hr 0.00 in0.0 mm
03:13 PM 44.5°F6.9°C 42.7°F5.9°C 93% 3.6 mph S5.8 kmh S 5.8 mph9.3 kmh 28.53 in966.1 mb 0.00 in0.0 mm 0.00 in/hr0.0 mm/hr 0.00 in0.0 mm
03:18 PM 44.4°F6.9°C 42.6°F5.9°C 93% 1.4 mph SSE2.3 kmh SSE 5.8 mph9.3 kmh 28.53 in966.1 mb 0.00 in0.0 mm 0.00 in/hr0.0 mm/hr 0.00 in0.0 mm
03:23 PM 44.2°F6.8°C 42.4°F5.8°C 93% 2.7 mph SE4.3 kmh SE 6.0 mph9.7 kmh 28.53 in966.1 mb 0.00 in0.0 mm 0.00 in/hr0.0 mm/hr 0.00 in0.0 mm
03:28 PM 44.2°F6.8°C 42.4°F5.8°C 93% 2.3 mph SSE3.7 kmh SSE 6.0 mph9.7 kmh 28.53 in966.1 mb 0.00 in0.0 mm 0.00 in/hr0.0 mm/hr 0.00 in0.0 mm
03:33 PM 44.2°F6.8°C 42.6°F5.9°C 94% 2.1 mph S3.4 kmh S 4.5 mph7.2 kmh 28.53 in966.1 mb 0.00 in0.0 mm 0.00 in/hr0.0 mm/hr 0.00 in0.0 mm
03:38 PM 44.2°F6.8°C 42.7°F5.9°C 94% 2.7 mph WNW4.3 kmh WNW 4.3 mph6.9 kmh 28.53 in966.1 mb 0.00 in0.0 mm 0.00 in/hr0.0 mm/hr 0.00 in0.0 mm
03:43 PM 44.2°F6.8°C 42.7°F5.9°C 94% 1.3 mph ESE2.1 kmh ESE 4.3 mph6.9 kmh 28.53 in966.1 mb 0.00 in0.0 mm 0.00 in/hr0.0 mm/hr 0.00 in0.0 mm
03:48 PM 44.1°F6.7°C 42.6°F5.9°C 94% 1.5 mph SSE2.4 kmh SSE 3.6 mph5.8 kmh 28.53 in966.1 mb 0.00 in0.0 mm 0.00 in/hr0.0 mm/hr 0.00 in0.0 mm
03:53 PM 44.1°F6.7°C 42.6°F5.9°C 96% 3.1 mph SE5.0 kmh SE 4.9 mph7.9 kmh 28.53 in966.1 mb 0.00 in0.0 mm 0.00 in/hr0.0 mm/hr 0.00 in0.0 mm
03:58 PM 44.1°F6.7°C 42.9°F6.1°C 96% 2.5 mph ESE4.0 kmh ESE 5.4 mph8.7 kmh 28.56 in967.2 mb 0.00 in0.0 mm 0.00 in/hr0.0 mm/hr 0.00 in0.0 mm
04:03 PM 44.1°F6.7°C 43.0°F6.1°C 97% 2.0 mph SE3.2 kmh SE 5.4 mph8.7 kmh 28.56 in967.2 mb 0.00 in0.0 mm 0.00 in/hr0.0 mm/hr 0.00 in0.0 mm
04:08 PM 43.9°F6.6°C 43.0°F6.1°C 97% 1.9 mph SE3.1 kmh SE 3.8 mph6.1 kmh 28.56 in967.2 mb 0.00 in0.0 mm 0.00 in/hr0.0 mm/hr 0.00 in0.0 mm
04:13 PM 43.8°F6.6°C 42.9°F6.1°C 97% 2.6 mph E4.2 kmh E 3.8 mph6.1 kmh 28.56 in967.2 mb 0.00 in0.0 mm 0.00 in/hr0.0 mm/hr 0.00 in0.0 mm
04:18 PM 43.6°F6.4°C 42.7°F5.9°C 97% 2.0 mph E3.2 kmh E 3.6 mph5.8 kmh 28.56 in967.2 mb 0.00 in0.0 mm 0.00 in/hr0.0 mm/hr 0.00 in0.0 mm
04:23 PM 43.5°F6.4°C 42.6°F5.9°C 97% 0.5 mph ESE0.8 kmh ESE 3.6 mph5.8 kmh 28.56 in967.2 mb 0.00 in0.0 mm 0.00 in/hr0.0 mm/hr 0.00 in0.0 mm
04:28 PM 43.5°F6.4°C 42.6°F5.9°C 97% 1.1 mph ESE1.8 kmh ESE 3.4 mph5.5 kmh 28.56 in967.2 mb 0.00 in0.0 mm 0.00 in/hr0.0 mm/hr 0.00 in0.0 mm
04:33 PM 43.5°F6.4°C 42.6°F5.9°C 97% 0.5 mph SE0.8 kmh SE 3.4 mph5.5 kmh 28.56 in967.2 mb 0.00 in0.0 mm 0.00 in/hr0.0 mm/hr 0.00 in0.0 mm
04:38 PM 43.5°F6.4°C 42.5°F5.8°C 96% 1.2 mph S1.9 kmh S 2.7 mph4.3 kmh 28.56 in967.2 mb 0.00 in0.0 mm 0.00 in/hr0.0 mm/hr 0.00 in0.0 mm
04:43 PM 43.5°F6.4°C 42.3°F5.7°C 96% 1.6 mph S2.6 kmh S 3.4 mph5.5 kmh 28.56 in967.2 mb 0.00 in0.0 mm 0.00 in/hr0.0 mm/hr 0.00 in0.0 mm
04:48 PM 43.4°F6.3°C 42.4°F5.8°C 97% 1.0 mph SE1.6 kmh SE 3.4 mph5.5 kmh 28.56 in967.2 mb 0.00 in0.0 mm 0.00 in/hr0.0 mm/hr 0.00 in0.0 mm
04:53 PM 43.3°F6.3°C 42.2°F5.7°C 96% Calm Calm 2.7 mph4.3 kmh 28.56 in967.2 mb 0.00 in0.0 mm 0.00 in/hr0.0 mm/hr 0.00 in0.0 mm
04:58 PM 43.3°F6.3°C 42.2°F5.7°C 96% Calm Calm 2.0 mph3.2 kmh 28.59 in968.2 mb 0.00 in0.0 mm 0.00 in/hr0.0 mm/hr 0.00 in0.0 mm
05:03 PM 43.3°F6.3°C 42.2°F5.7°C 96% Calm Calm 1.6 mph2.6 kmh 28.59 in968.2 mb 0.00 in0.0 mm 0.00 in/hr0.0 mm/hr 0.00 in0.0 mm
05:08 PM 43.3°F6.3°C 42.2°F5.7°C 96% 0.5 mph WNW0.8 kmh WNW 2.0 mph3.2 kmh 28.59 in968.2 mb 0.00 in0.0 mm 0.00 in/hr0.0 mm/hr 0.00 in0.0 mm
05:13 PM 43.3°F6.3°C 41.9°F5.5°C 94% 0.6 mph NW1.0 kmh NW 2.0 mph3.2 kmh 28.59 in968.2 mb 0.00 in0.0 mm 0.00 in/hr0.0 mm/hr 0.00 in0.0 mm
05:18 PM 43.3°F6.3°C 41.9°F5.5°C 94% 1.6 mph NNW2.6 kmh NNW 2.5 mph4.0 kmh 28.59 in968.2 mb 0.00 in0.0 mm 0.00 in/hr0.0 mm/hr 0.00 in0.0 mm
05:23 PM 43.3°F6.3°C 41.9°F5.5°C 94% 1.3 mph W2.1 kmh W 7.2 mph11.6 kmh 28.59 in968.2 mb 0.00 in0.0 mm 0.00 in/hr0.0 mm/hr 0.00 in0.0 mm
05:28 PM 43.3°F6.3°C 41.3°F5.2°C 92% 2.1 mph NW3.4 kmh NW 7.2 mph11.6 kmh 28.59 in968.2 mb 0.00 in0.0 mm 0.00 in/hr0.0 mm/hr 0.00 in0.0 mm
05:33 PM 43.2°F6.2°C 40.8°F4.9°C 91% 2.9 mph NW4.7 kmh NW 5.4 mph8.7 kmh 28.59 in968.2 mb 0.00 in0.0 mm 0.00 in/hr0.0 mm/hr 0.00 in0.0 mm
05:38 PM 43.1°F6.2°C 40.7°F4.8°C 91% 3.9 mph NW6.3 kmh NW 7.2 mph11.6 kmh 28.59 in968.2 mb 0.00 in0.0 mm 0.00 in/hr0.0 mm/hr 0.00 in0.0 mm
05:43 PM 43.0°F6.1°C 40.6°F4.8°C 91% 2.4 mph WNW3.9 kmh WNW 7.2 mph11.6 kmh 28.59 in968.2 mb 0.00 in0.0 mm 0.00 in/hr0.0 mm/hr 0.00 in0.0 mm
05:48 PM 43.0°F6.1°C 40.6°F4.8°C 91% 1.6 mph NW2.6 kmh NW 4.9 mph7.9 kmh 28.59 in968.2 mb 0.00 in0.0 mm 0.00 in/hr0.0 mm/hr 0.00 in0.0 mm
05:53 PM 43.0°F6.1°C 40.4°F4.7°C 91% 2.2 mph N3.5 kmh N 4.9 mph7.9 kmh 28.59 in968.2 mb 0.00 in0.0 mm 0.00 in/hr0.0 mm/hr 0.00 in0.0 mm
05:58 PM 42.9°F6.1°C 40.5°F4.7°C 91% 2.2 mph W3.5 kmh W 4.7 mph7.6 kmh 28.59 in968.2 mb 0.00 in0.0 mm 0.00 in/hr0.0 mm/hr 0.00 in0.0 mm
06:03 PM 42.8°F6.0°C 40.2°F4.6°C 90% 1.7 mph W2.7 kmh W 4.3 mph6.9 kmh 28.59 in968.2 mb 0.00 in0.0 mm 0.00 in/hr0.0 mm/hr 0.00 in0.0 mm
06:08 PM 42.7°F5.9°C 40.1°F4.5°C 91% Calm Calm 2.0 mph3.2 kmh 28.59 in968.2 mb 0.00 in0.0 mm 0.00 in/hr0.0 mm/hr 0.00 in0.0 mm
06:13 PM 42.6°F5.9°C 40.2°F4.6°C 91% 0.8 mph WSW1.3 kmh WSW 1.6 mph2.6 kmh 28.59 in968.2 mb 0.00 in0.0 mm 0.00 in/hr0.0 mm/hr 0.00 in0.0 mm
06:18 PM 42.5°F5.8°C 40.1°F4.5°C 91% Calm Calm 1.6 mph2.6 kmh 28.59 in968.2 mb 0.00 in0.0 mm 0.00 in/hr0.0 mm/hr 0.00 in0.0 mm
06:23 PM 42.4°F5.8°C 40.0°F4.4°C 91% Calm Calm 1.6 mph2.6 kmh 28.59 in968.2 mb 0.00 in0.0 mm 0.00 in/hr0.0 mm/hr 0.00 in0.0 mm
06:28 PM 42.4°F5.8°C 40.2°F4.6°C 92% 0.6 mph WNW1.0 kmh WNW 1.6 mph2.6 kmh 28.59 in968.2 mb 0.00 in0.0 mm 0.00 in/hr0.0 mm/hr 0.00 in0.0 mm
06:33 PM 42.3°F5.7°C 40.2°F4.6°C 92% Calm Calm 1.3 mph2.1 kmh 28.59 in968.2 mb 0.00 in0.0 mm 0.00 in/hr0.0 mm/hr 0.00 in0.0 mm
06:38 PM 42.3°F5.7°C 40.2°F4.6°C 92% 1.1 mph NW1.8 kmh NW 0.9 mph1.4 kmh 28.59 in968.2 mb 0.00 in0.0 mm 0.00 in/hr0.0 mm/hr 0.00 in0.0 mm
06:43 PM 42.3°F5.7°C 40.2°F4.6°C 92% Calm Calm 1.3 mph2.1 kmh 28.59 in968.2 mb 0.00 in0.0 mm 0.00 in/hr0.0 mm/hr 0.00 in0.0 mm
06:48 PM 42.3°F5.7°C 40.4°F4.7°C 93% Calm Calm 1.3 mph2.1 kmh 28.59 in968.2 mb 0.00 in0.0 mm 0.00 in/hr0.0 mm/hr 0.00 in0.0 mm
06:53 PM 42.3°F5.7°C 40.4°F4.7°C 92% Calm Calm 1.1 mph1.8 kmh 28.59 in968.2 mb 0.00 in0.0 mm 0.00 in/hr0.0 mm/hr 0.00 in0.0 mm
06:58 PM 42.3°F5.7°C 40.4°F4.7°C 93% Calm Calm 1.1 mph1.8 kmh 28.61 in968.8 mb 0.00 in0.0 mm 0.00 in/hr0.0 mm/hr 0.00 in0.0 mm
07:03 PM 42.3°F5.7°C 40.5°F4.7°C 93% Calm Calm 1.1 mph1.8 kmh 28.61 in968.8 mb 0.00 in0.0 mm 0.00 in/hr0.0 mm/hr 0.00 in0.0 mm
07:08 PM 42.3°F5.7°C 40.5°F4.7°C 93% Calm Calm -- 28.61 in968.8 mb 0.00 in0.0 mm 0.00 in/hr0.0 mm/hr 0.00 in0.0 mm
07:13 PM 42.3°F5.7°C 40.5°F4.7°C 93% Calm Calm -- 28.61 in968.8 mb 0.00 in0.0 mm 0.00 in/hr0.0 mm/hr 0.00 in0.0 mm
07:18 PM 42.3°F5.7°C 40.5°F4.7°C 93% Calm Calm -- 28.61 in968.8 mb 0.00 in0.0 mm 0.00 in/hr0.0 mm/hr 0.00 in0.0 mm
07:23 PM 42.3°F5.7°C 40.5°F4.7°C 93% 1.4 mph SW2.3 kmh SW 2.9 mph4.7 kmh 28.61 in968.8 mb 0.00 in0.0 mm 0.00 in/hr0.0 mm/hr 0.00 in0.0 mm
07:28 PM 42.4°F5.8°C 40.9°F4.9°C 94% 1.2 mph WSW1.9 kmh WSW 2.9 mph4.7 kmh 28.61 in968.8 mb 0.00 in0.0 mm 0.00 in/hr0.0 mm/hr 0.00 in0.0 mm
07:33 PM 42.4°F5.8°C 40.8°F4.9°C 93% 0.5 mph NW0.8 kmh NW 1.6 mph2.6 kmh 28.61 in968.8 mb 0.00 in0.0 mm 0.00 in/hr0.0 mm/hr 0.00 in0.0 mm
07:38 PM 42.4°F5.8°C 40.7°F4.8°C 93% Calm Calm 1.6 mph2.6 kmh 28.61 in968.8 mb 0.00 in0.0 mm 0.00 in/hr0.0 mm/hr 0.00 in0.0 mm
07:43 PM 42.4°F5.8°C 40.7°F4.8°C 93% Calm Calm 1.6 mph2.6 kmh 28.64 in969.9 mb 0.00 in0.0 mm 0.00 in/hr0.0 mm/hr 0.00 in0.0 mm
07:48 PM 42.4°F5.8°C 40.5°F4.7°C 92% 0.5 mph WNW0.8 kmh WNW 1.3 mph2.1 kmh 28.64 in969.9 mb 0.00 in0.0 mm 0.00 in/hr0.0 mm/hr 0.00 in0.0 mm
07:53 PM 42.4°F5.8°C 40.3°F4.6°C 92% Calm Calm 1.6 mph2.6 kmh 28.64 in969.9 mb 0.00 in0.0 mm 0.00 in/hr0.0 mm/hr 0.00 in0.0 mm
07:58 PM 42.4°F5.8°C 40.5°F4.7°C 93% 0.3 mph W0.5 kmh W 1.6 mph2.6 kmh 28.61 in968.8 mb 0.00 in0.0 mm 0.00 in/hr0.0 mm/hr 0.00 in0.0 mm
08:03 PM 42.3°F5.7°C 40.5°F4.7°C 93% 0.2 mph S0.3 kmh S 1.6 mph2.6 kmh 28.61 in968.8 mb 0.00 in0.0 mm 0.00 in/hr0.0 mm/hr 0.00 in0.0 mm
08:08 PM 42.3°F5.7°C 40.5°F4.7°C 93% Calm Calm 2.0 mph3.2 kmh 28.61 in968.8 mb 0.00 in0.0 mm 0.00 in/hr0.0 mm/hr 0.00 in0.0 mm
08:13 PM 42.3°F5.7°C 40.5°F4.7°C 93% Calm Calm 2.0 mph3.2 kmh 28.59 in968.2 mb 0.00 in0.0 mm 0.00 in/hr0.0 mm/hr 0.00 in0.0 mm
08:18 PM 42.3°F5.7°C 40.5°F4.7°C 93% 0.7 mph WNW1.1 kmh WNW 1.6 mph2.6 kmh 28.59 in968.2 mb 0.00 in0.0 mm 0.00 in/hr0.0 mm/hr 0.00 in0.0 mm
08:23 PM 42.3°F5.7°C 40.5°F4.7°C 93% 1.2 mph W1.9 kmh W 3.6 mph5.8 kmh 28.59 in968.2 mb 0.00 in0.0 mm 0.00 in/hr0.0 mm/hr 0.00 in0.0 mm
08:28 PM 42.3°F5.7°C 40.5°F4.7°C 93% 1.5 mph NW2.4 kmh NW 3.6 mph5.8 kmh 28.59 in968.2 mb 0.00 in0.0 mm 0.00 in/hr0.0 mm/hr 0.00 in0.0 mm
08:33 PM 42.3°F5.7°C 40.8°F4.9°C 94% 2.7 mph NW4.3 kmh NW 2.9 mph4.7 kmh 28.59 in968.2 mb 0.00 in0.0 mm 0.00 in/hr0.0 mm/hr 0.00 in0.0 mm
08:38 PM 42.3°F5.7°C 40.8°F4.9°C 94% 1.3 mph WSW2.1 kmh WSW 2.7 mph4.3 kmh 28.59 in968.2 mb 0.00 in0.0 mm 0.00 in/hr0.0 mm/hr 0.00 in0.0 mm
08:43 PM 42.3°F5.7°C 40.8°F4.9°C 94% 1.5 mph WSW2.4 kmh WSW 2.7 mph4.3 kmh 28.61 in968.8 mb 0.00 in0.0 mm 0.00 in/hr0.0 mm/hr 0.00 in0.0 mm
08:48 PM 42.3°F5.7°C 40.8°F4.9°C 94% 1.0 mph W1.6 kmh W 2.7 mph4.3 kmh 28.61 in968.8 mb 0.00 in0.0 mm 0.00 in/hr0.0 mm/hr 0.00 in0.0 mm
08:53 PM 42.3°F5.7°C 40.8°F4.9°C 94% 1.3 mph W2.1 kmh W 3.6 mph5.8 kmh 28.61 in968.8 mb 0.00 in0.0 mm 0.00 in/hr0.0 mm/hr 0.00 in0.0 mm
08:58 PM 42.3°F5.7°C 40.8°F4.9°C 94% 0.5 mph NW0.8 kmh NW 3.6 mph5.8 kmh 28.61 in968.8 mb 0.00 in0.0 mm 0.00 in/hr0.0 mm/hr 0.00 in0.0 mm
09:03 PM 42.3°F5.7°C 40.8°F4.9°C 94% 1.0 mph WNW1.6 kmh WNW 3.1 mph5.0 kmh 28.61 in968.8 mb 0.00 in0.0 mm 0.00 in/hr0.0 mm/hr 0.00 in0.0 mm
09:08 PM 42.2°F5.7°C 40.7°F4.8°C 94% 1.3 mph WNW2.1 kmh WNW 2.9 mph4.7 kmh 28.61 in968.8 mb 0.00 in0.0 mm 0.00 in/hr0.0 mm/hr 0.00 in0.0 mm
09:14 PM 42.1°F5.6°C 40.6°F4.8°C 94% Calm Calm 2.2 mph3.5 kmh 28.61 in968.8 mb 0.00 in0.0 mm 0.00 in/hr0.0 mm/hr 0.00 in0.0 mm
09:19 PM 42.1°F5.6°C 40.6°F4.8°C 94% Calm Calm 1.3 mph2.1 kmh 28.61 in968.8 mb 0.00 in0.0 mm 0.00 in/hr0.0 mm/hr 0.00 in0.0 mm
09:24 PM 42.1°F5.6°C 40.6°F4.8°C 94% 0.1 mph SSW0.2 kmh SSW 1.6 mph2.6 kmh 28.61 in968.8 mb 0.00 in0.0 mm 0.00 in/hr0.0 mm/hr 0.00 in0.0 mm
09:29 PM 42.1°F5.6°C 40.8°F4.9°C 96% 0.4 mph W0.6 kmh W 1.6 mph2.6 kmh 28.61 in968.8 mb 0.00 in0.0 mm 0.00 in/hr0.0 mm/hr 0.00 in0.0 mm
09:34 PM 42.1°F5.6°C 40.9°F4.9°C 96% Calm Calm 1.6 mph2.6 kmh 28.61 in968.8 mb 0.00 in0.0 mm 0.00 in/hr0.0 mm/hr 0.00 in0.0 mm
09:39 PM 41.9°F5.5°C 40.7°F4.8°C 96% 0.4 mph SW0.6 kmh SW 2.0 mph3.2 kmh 28.61 in968.8 mb 0.00 in0.0 mm 0.00 in/hr0.0 mm/hr 0.00 in0.0 mm
09:44 PM 42.1°F5.6°C 40.9°F4.9°C 96% Calm Calm 2.5 mph4.0 kmh 28.61 in968.8 mb 0.00 in0.0 mm 0.00 in/hr0.0 mm/hr 0.00 in0.0 mm
09:49 PM 42.1°F5.6°C 40.9°F4.9°C 96% Calm Calm 2.5 mph4.0 kmh 28.61 in968.8 mb 0.00 in0.0 mm 0.00 in/hr0.0 mm/hr 0.00 in0.0 mm
09:54 PM 42.1°F5.6°C 40.9°F4.9°C 96% Calm Calm -- 28.61 in968.8 mb 0.00 in0.0 mm 0.00 in/hr0.0 mm/hr 0.00 in0.0 mm
09:59 PM 42.1°F5.6°C 40.9°F4.9°C 96% Calm Calm -- 28.61 in968.8 mb 0.00 in0.0 mm 0.00 in/hr0.0 mm/hr 0.00 in0.0 mm
10:04 PM 42.1°F5.6°C 40.9°F4.9°C 96% 1.3 mph S2.1 kmh S 2.5 mph4.0 kmh 28.61 in968.8 mb 0.00 in0.0 mm 0.00 in/hr0.0 mm/hr 0.00 in0.0 mm
10:09 PM 42.1°F5.6°C 40.9°F4.9°C 96% Calm Calm 2.5 mph4.0 kmh 28.61 in968.8 mb 0.00 in0.0 mm 0.00 in/hr0.0 mm/hr 0.00 in0.0 mm
10:14 PM 42.1°F5.6°C 40.9°F4.9°C 96% Calm Calm 0.9 mph1.4 kmh 28.61 in968.8 mb 0.00 in0.0 mm 0.00 in/hr0.0 mm/hr 0.00 in0.0 mm
10:19 PM 42.2°F5.7°C 41.0°F5.0°C 96% Calm Calm -- 28.61 in968.8 mb 0.00 in0.0 mm 0.00 in/hr0.0 mm/hr 0.00 in0.0 mm
10:26 PM 42.3°F5.7°C 41.1°F5.1°C 96% 0.9 mph SE1.4 kmh SE 2.0 mph3.2 kmh 28.61 in968.8 mb 0.00 in0.0 mm 0.00 in/hr0.0 mm/hr 0.00 in0.0 mm
10:31 PM 42.3°F5.7°C 41.2°F5.1°C 97% 1.2 mph ESE1.9 kmh ESE 2.2 mph3.5 kmh 28.61 in968.8 mb 0.00 in0.0 mm 0.00 in/hr0.0 mm/hr 0.00 in0.0 mm
10:36 PM 42.3°F5.7°C 41.4°F5.2°C 97% Calm Calm 2.2 mph3.5 kmh 28.61 in968.8 mb 0.00 in0.0 mm 0.00 in/hr0.0 mm/hr 0.00 in0.0 mm
10:41 PM 42.2°F5.7°C 41.4°F5.2°C 97% 0.3 mph WSW0.5 kmh WSW 2.2 mph3.5 kmh 28.61 in968.8 mb 0.00 in0.0 mm 0.00 in/hr0.0 mm/hr 0.00 in0.0 mm
10:46 PM 42.1°F5.6°C 41.2°F5.1°C 97% 0.9 mph SSE1.4 kmh SSE 2.2 mph3.5 kmh 28.61 in968.8 mb 0.00 in0.0 mm 0.00 in/hr0.0 mm/hr 0.00 in0.0 mm
10:51 PM 42.1°F5.6°C 41.2°F5.1°C 97% 1.0 mph SSW1.6 kmh SSW 2.5 mph4.0 kmh 28.61 in968.8 mb 0.00 in0.0 mm 0.00 in/hr0.0 mm/hr 0.00 in0.0 mm
10:56 PM 42.1°F5.6°C 41.4°F5.2°C 98% Calm Calm 2.5 mph4.0 kmh 28.64 in969.9 mb 0.00 in0.0 mm 0.00 in/hr0.0 mm/hr 0.00 in0.0 mm
11:01 PM 42.1°F5.6°C 41.5°F5.3°C 98% Calm Calm 2.5 mph4.0 kmh 28.64 in969.9 mb 0.00 in0.0 mm 0.00 in/hr0.0 mm/hr 0.00 in0.0 mm
11:06 PM 42.1°F5.6°C 41.5°F5.3°C 98% Calm Calm 1.6 mph2.6 kmh 28.64 in969.9 mb 0.00 in0.0 mm 0.00 in/hr0.0 mm/hr 0.00 in0.0 mm
11:11 PM 42.1°F5.6°C 41.5°F5.3°C 98% Calm Calm 2.2 mph3.5 kmh 28.64 in969.9 mb 0.00 in0.0 mm 0.00 in/hr0.0 mm/hr 0.00 in0.0 mm
11:16 PM 42.3°F5.7°C 41.4°F5.2°C 97% 0.8 mph NW1.3 kmh NW 2.7 mph4.3 kmh 28.64 in969.9 mb 0.00 in0.0 mm 0.00 in/hr0.0 mm/hr 0.00 in0.0 mm
11:21 PM 42.3°F5.7°C 41.4°F5.2°C 97% 1.6 mph W2.6 kmh W 2.7 mph4.3 kmh 28.64 in969.9 mb 0.00 in0.0 mm 0.00 in/hr0.0 mm/hr 0.00 in0.0 mm
11:26 PM 42.3°F5.7°C 41.4°F5.2°C 97% 1.5 mph W2.4 kmh W 3.4 mph5.5 kmh 28.64 in969.9 mb 0.00 in0.0 mm 0.00 in/hr0.0 mm/hr 0.00 in0.0 mm
11:31 PM 42.1°F5.6°C 41.2°F5.1°C 97% 0.6 mph NE1.0 kmh NE 3.4 mph5.5 kmh 28.64 in969.9 mb 0.00 in0.0 mm 0.00 in/hr0.0 mm/hr 0.00 in0.0 mm
11:36 PM 42.1°F5.6°C 41.2°F5.1°C 97% 0.7 mph WNW1.1 kmh WNW 3.1 mph5.0 kmh 28.64 in969.9 mb 0.00 in0.0 mm 0.00 in/hr0.0 mm/hr 0.00 in0.0 mm
11:41 PM 42.0°F5.6°C 40.9°F4.9°C 96% 0.7 mph NW1.1 kmh NW 2.7 mph4.3 kmh 28.64 in969.9 mb 0.00 in0.0 mm 0.00 in/hr0.0 mm/hr 0.00 in0.0 mm
11:46 PM 41.9°F5.5°C 40.7°F4.8°C 96% Calm Calm 2.5 mph4.0 kmh 28.64 in969.9 mb 0.00 in0.0 mm 0.00 in/hr0.0 mm/hr 0.00 in0.0 mm
11:51 PM 41.9°F5.5°C 40.7°F4.8°C 96% Calm Calm 2.2 mph3.5 kmh 28.64 in969.9 mb 0.00 in0.0 mm 0.00 in/hr0.0 mm/hr 0.00 in0.0 mm
11:56 PM 41.9°F5.5°C 40.7°F4.8°C 96% Calm Calm 2.2 mph3.5 kmh 28.64 in969.9 mb 0.00 in0.0 mm 0.00 in/hr0.0 mm/hr 0.00 in0.0 mm